Time;durP1;ratioP1;P1;durP2;ratioP2;P2;SDS_P1;SDS_P2;PMS_P1;PMS_P2;Temp;Humidity;BMP_temperature;BMP_pressure;BME280_temperature;BME280_humidity;BME280_pressure;Samples;Min_cycle;Max_cycle;Signal;HPM_P1;HPM_P2
2021/05/21 00:02:06;;;;;;;5.50;3.10;;;13.40;99.90;;;;;;5075861;28;20116;-67
2021/05/21 00:04:32;;;;;;;21.02;7.70;;;13.20;99.90;;;;;;5058889;28;20057;-67
2021/05/21 00:06:57;;;;;;;18.73;7.38;;;13.20;99.90;;;;;;5064557;28;20021;-67
2021/05/21 00:09:23;;;;;;;16.00;7.13;;;13.20;99.90;;;;;;5055922;28;20032;-67
2021/05/21 00:11:48;;;;;;;8.82;5.05;;;13.20;99.90;;;;;;5062366;28;20017;-67
2021/05/21 00:14:14;;;;;;;15.40;7.47;;;13.20;99.90;;;;;;5053899;28;20037;-67
2021/05/21 00:16:40;;;;;;;20.83;9.45;;;13.00;99.90;;;;;;5057661;28;20405;-67
2021/05/21 00:19:06;;;;;;;14.05;7.78;;;13.20;99.90;;;;;;5051854;28;20029;-67
2021/05/21 00:21:31;;;;;;;18.85;7.35;;;13.10;99.90;;;;;;5036339;28;20131;-67
2021/05/21 00:23:57;;;;;;;13.13;5.82;;;13.20;99.90;;;;;;5058455;28;20037;-67
2021/05/21 00:26:23;;;;;;;7.35;4.60;;;13.10;99.90;;;;;;5053273;28;20035;-66
2021/05/21 00:28:48;;;;;;;5.88;3.70;;;13.20;99.90;;;;;;5060925;28;20086;-67
2021/05/21 00:31:14;;;;;;;5.63;3.42;;;13.00;99.90;;;;;;5067601;28;20468;-66
2021/05/21 00:33:40;;;;;;;5.93;2.95;;;13.00;99.90;;;;;;5053790;28;20059;-67
2021/05/21 00:36:05;;;;;;;5.45;3.10;;;12.80;99.90;;;;;;5064838;28;20106;-67
2021/05/21 00:38:31;;;;;;;3.70;2.75;;;12.80;99.90;;;;;;5062412;28;20038;-66
2021/05/21 00:41:02;;;;;;;4.50;3.05;;;12.50;99.90;;;;;;5063221;28;20021;-67
2021/05/21 00:43:28;;;;;;;3.67;2.63;;;12.70;99.90;;;;;;5062351;28;20036;-67
2021/05/21 00:45:53;;;;;;;3.95;2.65;;;12.90;99.90;;;;;;5062068;28;20031;-67
2021/05/21 00:48:20;;;;;;;7.18;3.42;;;12.90;99.90;;;;;;5062921;28;20032;-67
2021/05/21 00:50:48;;;;;;;3.85;2.40;;;12.90;99.90;;;;;;5041553;28;20032;-67
2021/05/21 00:53:16;;;;;;;3.67;2.45;;;12.90;99.90;;;;;;5056903;28;20029;-67
2021/05/21 00:55:42;;;;;;;9.45;2.95;;;13.00;99.90;;;;;;5059421;28;20025;-67
2021/05/21 00:58:08;;;;;;;4.45;2.58;;;12.90;99.90;;;;;;5061505;28;20079;-66
2021/05/21 01:00:34;;;;;;;4.28;2.85;;;12.70;99.90;;;;;;5068230;28;20052;-66
2021/05/21 01:02:59;;;;;;;4.32;2.65;;;12.80;99.90;;;;;;5064622;28;20044;-66
2021/05/21 01:05:25;;;;;;;4.47;2.47;;;12.90;99.90;;;;;;5054543;28;20653;-66
2021/05/21 01:07:51;;;;;;;3.83;2.30;;;12.60;99.90;;;;;;5041282;28;20103;-67
2021/05/21 01:10:17;;;;;;;2.85;1.90;;;12.60;99.90;;;;;;5055260;28;20028;-67
2021/05/21 01:12:43;;;;;;;4.72;2.40;;;12.80;99.90;;;;;;5057923;28;20025;-67
2021/05/21 01:15:11;;;;;;;7.95;2.67;;;13.00;99.90;;;;;;5058005;28;20017;-67
2021/05/21 01:17:36;;;;;;;4.07;2.35;;;12.80;99.90;;;;;;5062773;28;20025;-67
2021/05/21 01:20:05;;;;;;;7.60;2.53;;;12.60;99.90;;;;;;5062851;28;20020;-67
2021/05/21 01:22:31;;;;;;;5.70;2.80;;;12.40;99.90;;;;;;5058852;28;20040;-66
2021/05/21 01:24:57;;;;;;;4.50;2.30;;;12.40;99.90;;;;;;5061466;28;20384;-67
2021/05/21 01:27:24;;;;;;;6.28;2.33;;;12.60;99.90;;;;;;5062031;28;20056;-67
2021/05/21 01:29:49;;;;;;;5.20;2.25;;;12.70;99.90;;;;;;5060613;28;20025;-66
2021/05/21 01:32:15;;;;;;;4.78;2.53;;;12.80;99.90;;;;;;5063529;28;20040;-67
2021/05/21 01:34:41;;;;;;;2.80;2.10;;;12.70;99.90;;;;;;5059204;28;20039;-67
2021/05/21 01:37:14;;;;;;;7.90;2.55;;;12.60;99.90;;;;;;5057946;28;20086;-66
2021/05/21 01:39:39;;;;;;;3.92;2.08;;;12.40;99.90;;;;;;5065285;28;20418;-67
2021/05/21 01:42:06;;;;;;;4.40;2.15;;;12.60;99.90;;;;;;5057225;28;20032;-67
2021/05/21 01:44:31;;;;;;;3.00;2.17;;;12.60;99.90;;;;;;5061730;28;20381;-67
2021/05/21 01:46:57;;;;;;;3.72;2.60;;;12.60;99.90;;;;;;5064126;28;20028;-67
2021/05/21 01:49:23;;;;;;;4.30;2.03;;;12.40;99.90;;;;;;5062381;28;20108;-67
2021/05/21 01:51:54;;;;;;;2.22;1.83;;;12.60;99.90;;;;;;5070450;28;20502;-67
2021/05/21 01:54:20;;;;;;;3.75;1.77;;;12.50;99.90;;;;;;5057512;28;20052;-67
2021/05/21 01:56:48;;;;;;;4.00;2.00;;;12.60;99.90;;;;;;5070568;28;20137;-66
2021/05/21 01:59:14;;;;;;;2.88;1.60;;;12.40;99.90;;;;;;5057825;28;20530;-67
2021/05/21 02:01:40;;;;;;;5.75;2.15;;;12.30;99.90;;;;;;5070482;28;20052;-67
2021/05/21 02:04:06;;;;;;;3.42;2.58;;;12.00;99.90;;;;;;5055628;28;20029;-67
2021/05/21 02:06:38;;;;;;;5.13;1.95;;;11.70;99.90;;;;;;5065222;28;20019;-66
2021/05/21 02:09:07;;;;;;;6.20;2.63;;;12.00;99.90;;;;;;5056797;28;20044;-67
2021/05/21 02:11:33;;;;;;;8.07;2.28;;;12.20;99.90;;;;;;5037673;28;20460;-66
2021/05/21 02:13:58;;;;;;;3.47;2.30;;;12.20;99.90;;;;;;5057972;28;20109;-67
2021/05/21 02:16:24;;;;;;;3.85;2.30;;;12.20;99.90;;;;;;5057236;28;20071;-67
2021/05/21 02:18:50;;;;;;;2.97;2.25;;;12.30;99.90;;;;;;5064744;28;20033;-66
2021/05/21 02:21:16;;;;;;;3.65;2.10;;;12.40;99.90;;;;;;5067709;28;20894;-67
2021/05/21 02:23:41;;;;;;;4.88;2.40;;;12.40;99.90;;;;;;5061489;28;20036;-66
2021/05/21 02:26:07;;;;;;;3.17;2.28;;;12.50;99.90;;;;;;5071470;28;20017;-66
2021/05/21 02:28:33;;;;;;;2.50;2.10;;;12.50;99.90;;;;;;5064531;28;20036;-67
2021/05/21 02:31:00;;;;;;;3.85;2.00;;;12.50;99.90;;;;;;5059356;28;20009;-66
2021/05/21 02:33:26;;;;;;;4.32;2.50;;;12.50;99.90;;;;;;5058543;28;20082;-67
2021/05/21 02:35:52;;;;;;;2.55;1.98;;;12.50;99.90;;;;;;5071278;28;20035;-67
2021/05/21 02:38:17;;;;;;;5.35;2.60;;;12.40;99.90;;;;;;5061293;28;20033;-69
2021/05/21 02:40:45;;;;;;;3.63;2.38;;;12.30;99.90;;;;;;5055109;28;20020;-67
2021/05/21 02:43:10;;;;;;;2.83;1.92;;;12.00;99.90;;;;;;5061517;28;20385;-67
2021/05/21 02:45:36;;;;;;;4.78;2.47;;;12.00;99.90;;;;;;5067094;28;20016;-67
2021/05/21 02:48:02;;;;;;;4.72;2.30;;;11.90;99.90;;;;;;5065106;28;20024;-67
2021/05/21 02:50:28;;;;;;;3.42;2.10;;;11.80;99.90;;;;;;5064148;28;20070;-67
2021/05/21 02:52:53;;;;;;;6.57;2.50;;;11.80;99.90;;;;;;5064752;28;20091;-67
2021/05/21 02:55:19;;;;;;;5.13;2.38;;;11.60;99.90;;;;;;5068832;28;20150;-66
2021/05/21 02:57:45;;;;;;;7.57;2.40;;;11.90;99.90;;;;;;5063314;28;20107;-66
2021/05/21 03:00:11;;;;;;;9.52;2.55;;;12.00;99.90;;;;;;5058720;28;20017;-66
2021/05/21 03:02:38;;;;;;;9.52;2.47;;;11.90;99.90;;;;;;5062889;28;20525;-67
2021/05/21 03:05:04;;;;;;;6.28;1.90;;;11.90;99.90;;;;;;5064631;28;20025;-67
2021/05/21 03:07:30;;;;;;;4.07;2.35;;;11.90;99.90;;;;;;5066872;28;20032;-67
2021/05/21 03:09:55;;;;;;;2.42;1.83;;;12.00;99.90;;;;;;5061638;28;20035;-66
2021/05/21 03:12:21;;;;;;;3.95;2.10;;;12.10;99.90;;;;;;5058704;28;20028;-66
2021/05/21 03:14:47;;;;;;;4.40;1.98;;;12.10;99.90;;;;;;5059815;28;20021;-67
2021/05/21 03:17:12;;;;;;;3.03;2.28;;;11.80;99.90;;;;;;5066341;28;20513;-67
2021/05/21 03:19:38;;;;;;;4.38;2.30;;;11.70;99.90;;;;;;5058691;28;20464;-67
2021/05/21 03:22:04;;;;;;;4.15;2.22;;;11.70;99.90;;;;;;5066645;28;20728;-67
2021/05/21 03:24:30;;;;;;;2.58;2.00;;;11.80;99.90;;;;;;5060111;28;20025;-67
2021/05/21 03:26:56;;;;;;;8.00;2.10;;;11.80;99.90;;;;;;5049691;28;20112;-67
2021/05/21 03:29:21;;;;;;;5.93;2.30;;;11.60;99.90;;;;;;5057979;28;20512;-67
2021/05/21 03:31:47;;;;;;;2.83;2.40;;;11.60;99.90;;;;;;5059755;28;20027;-67
2021/05/21 03:34:13;;;;;;;4.50;2.38;;;11.80;99.90;;;;;;5060365;28;20381;-66
2021/05/21 03:36:39;;;;;;;2.35;2.00;;;11.70;99.90;;;;;;5068563;28;20048;-66
2021/05/21 03:39:06;;;;;;;6.45;2.20;;;11.80;99.90;;;;;;5061067;28;20035;-66
2021/05/21 03:41:33;;;;;;;3.97;2.38;;;11.90;99.90;;;;;;5052711;28;20046;-67
2021/05/21 03:43:59;;;;;;;3.72;2.20;;;11.80;99.90;;;;;;5061621;28;20059;-67
2021/05/21 03:46:24;;;;;;;5.05;2.90;;;11.70;99.90;;;;;;5066067;28;20078;-66
2021/05/21 03:48:50;;;;;;;5.85;2.60;;;11.60;99.90;;;;;;5061796;28;20409;-67
2021/05/21 03:51:16;;;;;;;6.47;2.42;;;11.70;99.90;;;;;;5069543;28;20059;-70
2021/05/21 03:53:42;;;;;;;6.65;2.30;;;11.70;99.90;;;;;;5054262;28;20040;-67
2021/05/21 03:56:08;;;;;;;4.68;2.63;;;11.60;99.90;;;;;;5064775;28;20416;-67
2021/05/21 03:58:33;;;;;;;5.28;2.55;;;11.60;99.90;;;;;;5064019;28;20081;-67
2021/05/21 04:01:00;;;;;;;5.65;2.65;;;11.70;99.90;;;;;;5067277;28;20021;-67
2021/05/21 04:03:26;;;;;;;6.13;2.38;;;11.80;99.90;;;;;;5059107;28;20107;-68
2021/05/21 04:05:52;;;;;;;5.82;2.85;;;11.80;99.90;;;;;;5055714;28;20024;-67
2021/05/21 04:08:18;;;;;;;6.78;3.25;;;11.40;99.90;;;;;;5055371;28;20409;-66
2021/05/21 04:10:43;;;;;;;7.50;2.78;;;11.30;99.90;;;;;;5068022;28;20056;-68
2021/05/21 04:13:09;;;;;;;4.22;2.40;;;11.20;99.90;;;;;;5058070;28;20145;-67
2021/05/21 04:15:37;;;;;;;4.45;2.00;;;11.50;99.90;;;;;;5056179;28;20079;-66
2021/05/21 04:18:03;;;;;;;4.70;2.22;;;11.50;99.90;;;;;;5052250;28;20036;-66
2021/05/21 04:20:29;;;;;;;3.78;2.17;;;11.70;99.90;;;;;;5050740;28;20017;-66
2021/05/21 04:22:56;;;;;;;2.97;2.33;;;11.50;99.90;;;;;;5059150;28;20492;-66
2021/05/21 04:25:22;;;;;;;3.35;2.20;;;11.60;99.90;;;;;;5062615;28;20024;-67
2021/05/21 04:27:47;;;;;;;3.92;2.22;;;11.50;99.90;;;;;;5062493;28;20093;-67
2021/05/21 04:30:14;;;;;;;6.72;2.10;;;11.20;99.90;;;;;;5056233;28;20047;-66
2021/05/21 04:32:39;;;;;;;6.95;2.22;;;11.30;99.90;;;;;;5063341;28;20017;-66
2021/05/21 04:35:07;;;;;;;4.80;2.03;;;11.50;99.90;;;;;;5066220;28;20031;-67
2021/05/21 04:37:33;;;;;;;2.65;1.50;;;11.60;99.90;;;;;;5060654;28;20146;-66
2021/05/21 04:39:59;;;;;;;4.35;1.80;;;11.60;99.90;;;;;;5057615;28;20032;-66
2021/05/21 04:42:25;;;;;;;3.67;1.92;;;11.60;99.90;;;;;;5053735;28;20109;-66
2021/05/21 04:44:50;;;;;;;6.25;1.80;;;11.50;99.90;;;;;;5055916;28;20087;-66
2021/05/21 04:47:16;;;;;;;3.60;1.75;;;11.50;99.90;;;;;;5063429;28;20026;-66
2021/05/21 04:49:42;;;;;;;3.50;1.50;;;11.60;99.90;;;;;;5049715;28;20093;-66
2021/05/21 04:52:09;;;;;;;3.97;1.70;;;11.60;99.90;;;;;;5053859;28;20424;-66
2021/05/21 04:54:36;;;;;;;2.13;1.63;;;11.50;99.90;;;;;;5059608;28;20029;-66
2021/05/21 04:57:03;;;;;;;3.10;1.88;;;11.50;99.90;;;;;;5066025;28;20145;-66
2021/05/21 04:59:29;;;;;;;3.60;1.67;;;11.30;99.90;;;;;;5052923;28;20032;-67
2021/05/21 05:01:55;;;;;;;3.83;2.28;;;11.40;99.90;;;;;;5066706;28;20025;-65
2021/05/21 05:04:21;;;;;;;4.18;1.90;;;11.40;99.90;;;;;;5058284;28;20413;-63
2021/05/21 05:06:47;;;;;;;7.93;2.03;;;12.10;99.90;;;;;;5064339;28;20027;-63
2021/05/21 05:09:13;;;;;;;1.90;1.38;;;11.90;99.90;;;;;;5058707;28;20561;-63
2021/05/21 05:11:43;;;;;;;4.60;1.60;;;11.90;99.90;;;;;;5060402;28;20028;-63
2021/05/21 05:14:10;;;;;;;6.65;1.80;;;11.60;99.90;;;;;;5060899;28;20067;-63
2021/05/21 05:16:36;;;;;;;4.15;1.63;;;11.50;99.90;;;;;;5057397;28;20021;-63
2021/05/21 05:19:03;;;;;;;3.55;1.95;;;11.60;99.90;;;;;;5065176;28;20098;-63
2021/05/21 05:21:32;;;;;;;6.88;1.98;;;11.60;99.90;;;;;;5065717;28;20407;-64
2021/05/21 05:24:00;;;;;;;7.78;2.15;;;11.60;99.90;;;;;;5058299;28;20025;-63
2021/05/21 05:26:25;;;;;;;4.95;2.33;;;11.70;99.90;;;;;;5056499;28;20390;-63
2021/05/21 05:28:51;;;;;;;3.22;2.00;;;11.70;99.90;;;;;;5058442;28;20032;-64
2021/05/21 05:31:19;;;;;;;8.00;2.13;;;11.80;99.90;;;;;;5069410;28;20032;-63
2021/05/21 05:33:45;;;;;;;9.23;2.30;;;11.80;99.90;;;;;;5066838;28;20444;-63
2021/05/21 05:36:10;;;;;;;4.05;1.98;;;11.70;99.90;;;;;;5060980;28;20048;-63
2021/05/21 05:38:36;;;;;;;6.68;2.38;;;11.90;99.90;;;;;;5065204;28;20040;-63
2021/05/21 05:41:02;;;;;;;10.02;2.40;;;11.90;99.90;;;;;;5054749;28;20033;-64
2021/05/21 05:43:28;;;;;;;7.03;2.38;;;12.10;99.90;;;;;;5059370;28;20055;-64
2021/05/21 05:45:54;;;;;;;4.05;2.20;;;12.30;99.90;;;;;;5061591;28;20021;-64
2021/05/21 05:48:20;;;;;;;3.85;2.10;;;12.30;99.90;;;;;;5063101;28;20086;-64
2021/05/21 05:50:48;;;;;;;6.85;2.13;;;12.30;99.90;;;;;;5063591;28;20012;-64
2021/05/21 05:53:14;;;;;;;9.98;2.33;;;12.40;99.90;;;;;;5061555;28;20659;-63
2021/05/21 05:55:41;;;;;;;5.38;2.20;;;12.40;99.90;;;;;;5059924;28;20017;-64
2021/05/21 05:58:08;;;;;;;5.03;2.40;;;12.40;99.90;;;;;;5060286;28;20527;-64
2021/05/21 06:00:35;;;;;;;4.97;1.98;;;12.60;99.90;;;;;;5057484;28;20142;-64
2021/05/21 06:03:11;;;;;;;3.65;2.28;;;12.70;99.90;;;;;;5061416;28;20036;-65
2021/05/21 06:05:38;;;;;;;4.80;2.35;;;12.80;99.90;;;;;;5056193;28;20515;-64
2021/05/21 06:08:07;;;;;;;7.40;2.30;;;12.70;99.90;;;;;;5060910;28;20029;-65
2021/05/21 06:10:33;;;;;;;5.53;2.47;;;12.70;99.90;;;;;;5068565;28;20024;-65
2021/05/21 06:13:00;;;;;;;10.30;2.40;;;12.80;99.90;;;;;;5065637;28;21003;-67
2021/05/21 06:15:26;;;;;;;3.85;2.20;;;12.90;99.90;;;;;;5065451;28;20488;-65
2021/05/21 06:17:53;;;;;;;5.45;2.15;;;13.00;99.90;;;;;;5064534;28;20025;-64
2021/05/21 06:20:19;;;;;;;3.63;2.50;;;13.20;99.90;;;;;;5057470;28;20123;-65
2021/05/21 06:22:45;;;;;;;3.53;2.30;;;13.10;99.90;;;;;;5065612;28;20024;-65
2021/05/21 06:25:11;;;;;;;2.47;2.28;;;13.20;99.90;;;;;;5054575;28;20497;-63
2021/05/21 06:27:37;;;;;;;5.78;2.33;;;13.40;99.90;;;;;;5065424;28;20017;-61
2021/05/21 06:30:08;;;;;;;3.67;2.67;;;13.50;99.90;;;;;;5061805;28;20112;-61
2021/05/21 06:32:34;;;;;;;7.07;2.53;;;13.50;99.90;;;;;;5066473;28;20062;-69
2021/05/21 06:35:00;;;;;;;3.78;2.30;;;13.60;99.90;;;;;;5055726;28;20044;-72
2021/05/21 06:37:28;;;;;;;2.90;2.60;;;13.70;99.90;;;;;;5063910;28;20025;-72
2021/05/21 06:39:54;;;;;;;5.03;2.63;;;13.80;99.90;;;;;;5053983;28;20394;-67
2021/05/21 06:42:20;;;;;;;5.00;2.00;;;13.80;99.90;;;;;;5065057;28;20090;-67
2021/05/21 06:44:45;;;;;;;2.67;1.95;;;13.80;99.90;;;;;;5053057;28;20025;-74
2021/05/21 06:47:11;;;;;;;6.70;2.20;;;13.70;99.90;;;;;;5058933;28;20099;-73
2021/05/21 06:49:39;;;;;;;3.28;1.90;;;13.80;99.90;;;;;;5054513;28;20672;-71
2021/05/21 06:52:05;;;;;;;6.00;2.55;;;13.80;99.90;;;;;;5063973;28;20017;-66
2021/05/21 06:54:32;;;;;;;4.05;2.03;;;13.80;99.90;;;;;;5061983;28;20628;-65
2021/05/21 06:56:58;;;;;;;5.68;2.20;;;13.80;99.90;;;;;;5060086;28;20017;-65
2021/05/21 06:59:24;;;;;;;3.05;2.40;;;13.90;99.90;;;;;;5054197;28;20496;-66
2021/05/21 07:01:49;;;;;;;5.78;2.65;;;14.00;99.90;;;;;;5055124;28;20028;-65
2021/05/21 07:04:15;;;;;;;4.28;2.10;;;14.30;99.90;;;;;;5061006;28;20513;-64
2021/05/21 07:06:40;;;;;;;8.95;2.53;;;14.30;99.90;;;;;;5059543;28;20024;-66
2021/05/21 07:09:06;;;;;;;3.22;2.13;;;14.50;99.90;;;;;;5058117;28;20024;-65
2021/05/21 07:11:32;;;;;;;4.38;2.22;;;14.50;99.90;;;;;;5070580;28;20111;-65
2021/05/21 07:13:59;;;;;;;3.50;2.10;;;14.60;99.90;;;;;;5053655;28;20025;-65
2021/05/21 07:16:25;;;;;;;3.90;1.73;;;14.60;99.90;;;;;;5057461;28;20016;-65
2021/05/21 07:18:51;;;;;;;2.30;1.40;;;14.50;99.90;;;;;;5057771;28;20486;-64
2021/05/21 07:21:16;;;;;;;2.97;1.65;;;14.80;99.90;;;;;;5071175;28;20027;-65
2021/05/21 07:23:42;;;;;;;4.10;1.77;;;14.90;99.90;;;;;;5056997;28;20037;-69
2021/05/21 07:26:08;;;;;;;8.43;2.20;;;15.10;99.90;;;;;;5069545;28;20039;-65
2021/05/21 07:28:34;;;;;;;5.80;1.70;;;14.90;99.90;;;;;;5066611;28;20663;-64
2021/05/21 07:31:00;;;;;;;4.93;1.40;;;15.00;99.90;;;;;;5071053;28;20473;-64
2021/05/21 07:33:25;;;;;;;3.55;1.75;;;15.20;99.90;;;;;;5056765;28;20028;-64
2021/05/21 07:35:51;;;;;;;4.75;1.80;;;15.30;99.90;;;;;;5058298;28;20049;-67
2021/05/21 07:38:17;;;;;;;3.38;1.50;;;15.20;99.90;;;;;;5063433;28;20024;-71
2021/05/21 07:40:43;;;;;;;2.28;1.45;;;15.40;99.90;;;;;;5066300;28;20475;-71
2021/05/21 07:43:09;;;;;;;4.85;1.77;;;15.60;99.90;;;;;;5060191;28;20497;-70
2021/05/21 07:45:34;;;;;;;2.63;1.50;;;15.80;99.90;;;;;;5066801;28;20032;-69
2021/05/21 07:48:00;;;;;;;3.50;1.70;;;15.70;99.90;;;;;;5053241;28;20024;-70
2021/05/21 07:50:26;;;;;;;7.57;1.50;;;15.70;99.90;;;;;;5055902;28;20024;-71
2021/05/21 07:52:52;;;;;;;7.10;1.77;;;16.00;99.90;;;;;;5055881;28;20013;-65
2021/05/21 07:55:18;;;;;;;2.40;1.45;;;16.10;99.90;;;;;;5055001;28;20135;-65
2021/05/21 07:57:43;;;;;;;5.25;1.92;;;16.00;99.90;;;;;;5056970;28;20035;-64
2021/05/21 08:00:10;;;;;;;4.03;1.70;;;16.10;99.90;;;;;;5040256;28;20027;-64
2021/05/21 08:02:37;;;;;;;5.43;1.67;;;16.00;99.90;;;;;;5061180;28;20095;-65
2021/05/21 08:05:04;;;;;;;3.70;1.58;;;16.40;99.90;;;;;;5064510;28;20077;-65
2021/05/21 08:07:30;;;;;;;5.00;1.88;;;16.60;99.90;;;;;;5067277;28;20556;-65
2021/05/21 08:09:56;;;;;;;2.53;1.17;;;16.30;99.90;;;;;;5059145;28;20147;-65
2021/05/21 08:12:22;;;;;;;2.13;1.30;;;16.50;99.90;;;;;;5066091;28;20421;-64
2021/05/21 08:14:48;;;;;;;4.13;1.60;;;16.70;99.90;;;;;;5061824;28;20040;-64
2021/05/21 08:17:14;;;;;;;4.45;1.50;;;16.50;99.90;;;;;;5053164;28;20017;-65
2021/05/21 08:19:40;;;;;;;2.28;1.52;;;16.70;99.90;;;;;;5061777;28;20056;-65
2021/05/21 08:22:05;;;;;;;4.53;1.40;;;16.90;99.90;;;;;;5049365;28;20457;-65
2021/05/21 08:24:31;;;;;;;3.20;1.63;;;17.00;99.90;;;;;;5058711;28;20036;-64
2021/05/21 08:26:57;;;;;;;3.72;1.80;;;16.90;99.90;;;;;;5044271;28;20025;-65
2021/05/21 08:29:23;;;;;;;6.03;1.65;;;17.20;99.90;;;;;;5058481;28;20029;-65
2021/05/21 08:31:49;;;;;;;4.40;1.60;;;17.20;99.90;;;;;;5049941;28;20025;-65
2021/05/21 08:34:15;;;;;;;5.90;1.55;;;17.10;99.90;;;;;;5050374;28;20478;-64
2021/05/21 08:36:40;;;;;;;7.75;1.70;;;17.10;99.90;;;;;;5050300;28;20414;-64
2021/05/21 08:39:06;;;;;;;6.25;1.70;;;17.20;99.90;;;;;;5054786;28;20032;-64
2021/05/21 08:41:36;;;;;;;5.32;1.63;;;17.30;99.90;;;;;;5068796;28;20033;-65
2021/05/21 08:44:03;;;;;;;3.60;1.52;;;17.30;99.90;;;;;;5056044;28;20076;-64
2021/05/21 08:46:32;;;;;;;6.90;2.03;;;17.30;99.90;;;;;;5063346;28;20023;-65
2021/05/21 08:48:59;;;;;;;3.15;2.35;;;17.30;99.90;;;;;;5052471;28;20087;-64
2021/05/21 08:51:27;;;;;;;7.47;2.38;;;16.80;99.90;;;;;;5069425;28;20107;-64
2021/05/21 08:53:53;;;;;;;3.20;2.13;;;16.80;99.90;;;;;;5055229;28;20508;-64
2021/05/21 08:56:19;;;;;;;8.98;2.40;;;17.00;99.90;;;;;;5063300;28;20021;-64
2021/05/21 08:58:45;;;;;;;6.32;2.60;;;16.90;99.90;;;;;;5054331;28;20040;-64
2021/05/21 09:01:10;;;;;;;5.70;1.95;;;17.30;99.90;;;;;;5064146;28;20397;-64
2021/05/21 09:03:36;;;;;;;2.58;1.80;;;17.50;99.90;;;;;;5051051;28;20032;-63
2021/05/21 09:08:52;;;;;;;5.88;1.80;;;17.20;99.90;;;;;;5060567;28;20121;-64
2021/05/21 09:11:31;;;;;;;6.35;1.75;;;17.60;99.90;;;;;;5068356;28;20497;-63
2021/05/21 09:14:22;;;;;;;6.28;2.10;;;18.00;99.90;;;;;;5055093;28;20037;-64
2021/05/21 09:16:49;;;;;;;1.77;1.58;;;17.50;99.90;;;;;;5066489;28;20036;-63
2021/05/21 09:19:20;;;;;;;3.95;2.10;;;17.60;99.90;;;;;;5059642;28;20033;-63
2021/05/21 09:22:02;;;;;;;6.03;2.22;;;17.50;99.90;;;;;;5064543;28;20112;-63
2021/05/21 09:24:29;;;;;;;2.80;1.60;;;17.40;99.90;;;;;;5062526;28;20068;-64
2021/05/21 09:26:56;;;;;;;7.07;1.88;;;17.70;99.90;;;;;;5065641;28;20086;-63
2021/05/21 09:29:45;;;;;;;5.43;2.17;;;18.20;99.90;;;;;;5058241;28;20032;-63
2021/05/21 09:32:34;;;;;;;2.03;1.77;;;18.20;99.90;;;;;;5064062;28;20114;-63
2021/05/21 09:35:16;;;;;;;5.72;2.20;;;18.30;99.90;;;;;;5048698;28;20112;-63
2021/05/21 09:37:52;;;;;;;5.22;2.30;;;18.60;99.90;;;;;;5062563;28;20037;-63
2021/05/21 09:40:19;;;;;;;;;;;18.60;99.90;;;;;;5054894;28;20032;-62
2021/05/21 09:42:46;;;;;;;;;;;18.70;99.90;;;;;;5053872;28;19920;-63
2021/05/21 09:45:23;;;;;;;7.35;2.95;;;18.80;99.90;;;;;;5054185;28;19909;-63
2021/05/21 09:47:55;;;;;;;4.95;2.03;;;18.90;99.90;;;;;;5061444;28;20029;-62
2021/05/21 09:50:49;;;;;;;4.03;2.17;;;18.60;99.90;;;;;;5056979;28;20017;-62
2021/05/21 09:53:24;;;;;;;4.97;2.42;;;18.90;99.90;;;;;;5059378;28;20028;-62
2021/05/21 09:55:51;;;;;;;4.38;2.20;;;19.20;99.90;;;;;;5064284;28;20782;-62
2021/05/21 09:58:30;;;;;;;3.40;1.60;;;18.80;99.90;;;;;;5054232;28;20028;-62
2021/05/21 10:01:10;;;;;;;5.18;2.47;;;18.90;99.90;;;;;;5059433;28;20021;-63
2021/05/21 10:03:44;;;;;;;3.28;1.58;;;18.70;99.90;;;;;;5062004;28;20029;-66
2021/05/21 10:06:11;;;;;;;2.25;1.08;;;18.50;99.90;;;;;;5058381;28;20044;-65
2021/05/21 10:08:39;;;;;;;3.15;1.35;;;18.10;99.90;;;;;;5067076;28;20116;-65
2021/05/21 10:11:09;;;;;;;3.70;1.65;;;18.30;99.90;;;;;;5059121;28;20039;-64
2021/05/21 10:13:36;;;;;;;2.22;1.40;;;18.30;99.90;;;;;;5066554;28;20111;-67
2021/05/21 10:16:04;;;;;;;4.07;1.25;;;18.30;99.90;;;;;;5060026;28;20382;-67
2021/05/21 10:18:31;;;;;;;4.43;1.55;;;18.60;99.90;;;;;;5059375;28;20124;-67
2021/05/21 10:20:57;;;;;;;2.65;1.63;;;18.90;99.90;;;;;;5064685;28;20016;-67
2021/05/21 10:23:31;;;;;;;3.65;1.77;;;18.90;99.90;;;;;;5065452;28;20164;-67
2021/05/21 10:25:58;;;;;;;2.88;1.63;;;18.90;99.90;;;;;;5064331;28;20016;-67
2021/05/21 10:28:29;;;;;;;3.95;1.70;;;19.30;99.90;;;;;;5063451;28;20400;-67
2021/05/21 10:31:01;;;;;;;5.25;1.80;;;19.20;99.90;;;;;;5063683;28;20028;-67
2021/05/21 10:33:32;;;;;;;2.47;1.30;;;19.70;99.90;;;;;;5065606;28;20032;-67
2021/05/21 10:36:16;;;;;;;2.38;1.30;;;19.40;99.90;;;;;;5062493;28;20047;-67
2021/05/21 10:39:00;;;;;;;3.80;1.52;;;19.20;99.90;;;;;;5064518;28;20021;-67
2021/05/21 10:41:26;;;;;;;2.20;1.20;;;19.40;99.90;;;;;;5064862;28;20653;-65
2021/05/21 10:43:54;;;;;;;6.57;2.17;;;19.60;99.90;;;;;;5061361;28;20036;-65
2021/05/21 10:46:22;;;;;;;2.67;1.60;;;19.60;99.90;;;;;;5064720;28;20065;-66
2021/05/21 10:48:56;;;;;;;4.20;1.60;;;19.60;99.90;;;;;;5063428;28;20044;-65
2021/05/21 10:51:23;;;;;;;3.75;1.88;;;19.70;99.90;;;;;;5057126;28;20480;-65
2021/05/21 10:54:25;;;;;;;2.15;1.20;;;19.60;99.90;;;;;;5061797;28;20049;-65
2021/05/21 10:56:53;;;;;;;2.28;1.50;;;19.60;99.90;;;;;;5056360;28;20039;-64
2021/05/21 10:59:19;;;;;;;3.85;1.45;;;20.00;99.90;;;;;;5067345;28;20489;-64
2021/05/21 11:01:46;;;;;;;3.03;1.35;;;20.10;99.90;;;;;;5059058;28;20025;-65
2021/05/21 11:04:13;;;;;;;2.15;1.10;;;20.50;99.90;;;;;;5057134;28;20059;-64
2021/05/21 11:06:51;;;;;;;4.95;1.65;;;20.60;99.90;;;;;;5053060;28;20040;-65
2021/05/21 11:09:30;;;;;;;3.15;1.30;;;20.60;99.90;;;;;;5051163;28;20025;-65
2021/05/21 11:12:07;;;;;;;2.13;1.35;;;20.60;99.90;;;;;;5052421;28;20063;-65
2021/05/21 11:14:41;;;;;;;2.78;1.30;;;20.70;99.90;;;;;;5051843;28;20036;-65
2021/05/21 11:17:26;;;;;;;2.50;1.40;;;20.90;99.90;;;;;;5062200;28;20024;-65
2021/05/21 11:20:12;;;;;;;2.90;1.10;;;21.00;99.90;;;;;;5069451;28;20111;-64
2021/05/21 11:22:38;;;;;;;;;;;20.90;99.90;;;;;;5050104;28;20032;-64
2021/05/21 11:25:16;;;;;;;2.95;1.30;;;20.60;99.90;;;;;;5057113;28;20011;-64
2021/05/21 11:27:42;;;;;;;1.63;1.00;;;20.90;99.90;;;;;;5060818;28;20032;-64
2021/05/21 11:30:14;;;;;;;5.88;1.42;;;20.90;99.90;;;;;;5060893;28;20516;-64
2021/05/21 11:32:41;;;;;;;2.88;1.13;;;20.70;99.90;;;;;;5065008;28;20075;-64
2021/05/21 11:35:09;;;;;;;3.15;1.30;;;20.20;99.90;;;;;;5059562;28;20413;-64
2021/05/21 11:37:35;;;;;;;1.63;0.95;;;20.70;99.90;;;;;;5069501;28;20031;-64
2021/05/21 11:40:06;;;;;;;1.42;0.98;;;21.00;99.90;;;;;;5068175;28;20032;-64
2021/05/21 11:42:32;;;;;;;2.55;0.90;;;21.10;99.90;;;;;;5064449;28;20116;-64
2021/05/21 11:44:58;;;;;;;1.50;0.93;;;20.90;99.90;;;;;;5062496;28;20453;-64
2021/05/21 11:47:40;;;;;;;2.22;1.13;;;21.80;99.90;;;;;;5059747;28;20044;-64
2021/05/21 11:50:08;;;;;;;3.17;1.00;;;21.90;99.90;;;;;;5057240;28;20017;-64
2021/05/21 11:52:34;;;;;;;2.03;0.90;;;20.80;99.90;;;;;;5057694;28;20029;-65
2021/05/21 11:54:59;;;;;;;2.53;1.05;;;21.10;99.90;;;;;;5059472;28;20384;-64
2021/05/21 11:57:25;;;;;;;3.35;1.20;;;21.00;99.90;;;;;;5059536;28;20029;-65
2021/05/21 11:59:57;;;;;;;1.83;1.23;;;21.60;99.90;;;;;;5057999;28;20024;-65
2021/05/21 12:02:23;;;;;;;2.60;0.90;;;22.50;99.90;;;;;;5066558;28;20036;-65
2021/05/21 12:04:50;;;;;;;0.75;0.70;;;22.40;99.90;;;;;;5067727;28;20170;-65
2021/05/21 12:07:42;;;;;;;1.58;0.90;;;22.90;99.90;;;;;;5065732;28;20112;-65
2021/05/21 12:10:08;;;;;;;1.35;0.80;;;23.10;99.90;;;;;;5052520;28;20037;-65
2021/05/21 12:12:35;;;;;;;1.05;0.80;;;23.70;99.90;;;;;;5065391;28;20036;-65
2021/05/21 12:15:11;;;;;;;0.90;0.80;;;23.30;99.90;;;;;;5052732;28;20029;-65
2021/05/21 12:17:42;;;;;;;4.00;0.88;;;23.50;99.90;;;;;;5061997;28;20028;-64
2021/05/21 12:20:09;;;;;;;1.63;0.90;;;23.40;99.90;;;;;;5057779;28;20029;-65
2021/05/21 12:22:35;;;;;;;11.98;1.52;;;22.80;99.90;;;;;;5063278;28;20040;-65
2021/05/21 12:25:15;;;;;;;11.90;1.20;;;22.50;99.90;;;;;;5051135;28;20485;-65
2021/05/21 12:27:44;;;;;;;0.93;0.80;;;22.30;99.90;;;;;;5052328;28;20393;-64
2021/05/21 12:30:11;;;;;;;1.70;0.90;;;22.60;99.90;;;;;;5056198;28;20016;-65
2021/05/21 12:32:38;;;;;;;1.13;0.70;;;22.70;99.90;;;;;;5063280;28;20035;-64
2021/05/21 12:35:08;;;;;;;1.48;0.95;;;22.60;99.90;;;;;;5057929;28;20099;-72
2021/05/21 12:37:33;;;;;;;3.33;1.00;;;22.80;99.90;;;;;;5049881;28;20614;-64
2021/05/21 12:40:00;;;;;;;1.02;0.80;;;22.50;99.90;;;;;;5057258;28;20017;-65
2021/05/21 12:42:27;;;;;;;2.28;0.88;;;22.60;99.90;;;;;;5053096;28;20108;-65
2021/05/21 12:44:53;;;;;;;4.45;0.75;;;22.90;99.90;;;;;;5059133;28;20089;-65
2021/05/21 12:47:20;;;;;;;0.98;0.80;;;22.70;99.90;;;;;;5055650;28;20068;-65
2021/05/21 12:49:49;;;;;;;1.20;0.82;;;22.50;99.90;;;;;;5053364;28;20036;-65
2021/05/21 12:52:15;;;;;;;1.45;0.90;;;22.80;99.90;;;;;;5065620;28;20032;-65
2021/05/21 12:54:43;;;;;;;1.38;1.10;;;22.70;99.90;;;;;;5043275;28;20035;-64